createdAt,value
2018-01-21T00:00:35.782Z,3.60
2018-01-21T00:03:04.246Z,3.60
2018-01-21T00:05:32.511Z,3.60
2018-01-21T00:08:00.795Z,3.60
2018-01-21T00:10:29.072Z,3.60
2018-01-21T00:12:57.356Z,3.60
2018-01-21T00:15:27.404Z,3.60
2018-01-21T00:17:55.638Z,3.50
2018-01-21T00:20:23.918Z,3.60
2018-01-21T00:22:52.187Z,3.50
2018-01-21T00:25:20.414Z,3.50
2018-01-21T00:27:49.479Z,3.60
2018-01-21T00:30:17.730Z,3.50
2018-01-21T00:32:45.979Z,3.50
2018-01-21T00:35:14.246Z,3.50
2018-01-21T00:37:42.639Z,3.60
2018-01-21T00:40:10.925Z,3.60
2018-01-21T00:42:39.258Z,3.60
2018-01-21T00:45:08.306Z,3.60
2018-01-21T00:47:36.626Z,3.60
2018-01-21T00:50:05.710Z,3.60
2018-01-21T00:52:33.936Z,3.60
2018-01-21T00:55:02.254Z,3.60
2018-01-21T00:57:30.525Z,3.60
2018-01-21T01:00:00.314Z,3.60
2018-01-21T01:02:28.558Z,3.50
2018-01-21T01:04:56.922Z,3.60
2018-01-21T01:07:25.980Z,3.60
2018-01-21T01:09:54.202Z,3.50
2018-01-21T01:12:22.478Z,3.50
2018-01-21T01:14:50.742Z,3.50
2018-01-21T01:17:19.041Z,3.50
2018-01-21T01:19:47.309Z,3.50
2018-01-21T01:22:15.602Z,3.50
2018-01-21T01:24:43.894Z,3.50
2018-01-21T01:27:12.158Z,3.50
2018-01-21T01:29:40.443Z,3.50
2018-01-21T01:32:08.720Z,3.50
2018-01-21T01:34:37.055Z,3.50
2018-01-21T01:37:05.295Z,3.50
2018-01-21T01:39:34.358Z,3.40
2018-01-21T01:42:02.761Z,3.40
2018-01-21T01:44:31.686Z,3.40
2018-01-21T01:46:59.929Z,3.40
2018-01-21T01:49:29.050Z,3.50
2018-01-21T01:51:57.332Z,3.40
2018-01-21T01:54:25.585Z,3.50
2018-01-21T01:56:54.619Z,3.40
2018-01-21T01:59:22.909Z,3.40
2018-01-21T02:01:51.173Z,3.50
2018-01-21T02:04:19.437Z,3.40
2018-01-21T02:06:47.700Z,3.40
2018-01-21T02:09:15.954Z,3.40
2018-01-21T02:11:44.306Z,3.40
2018-01-21T02:14:12.587Z,3.30
2018-01-21T02:16:40.846Z,3.30
2018-01-21T02:19:09.105Z,3.30
2018-01-21T02:21:37.363Z,3.30
2018-01-21T02:24:05.630Z,3.30
2018-01-21T02:26:33.900Z,3.30
2018-01-21T02:29:02.151Z,3.20
2018-01-21T02:31:31.280Z,3.10
2018-01-21T02:33:59.570Z,3.10
2018-01-21T02:36:27.827Z,3.10
2018-01-21T02:38:56.129Z,3.10
2018-01-21T02:41:24.682Z,3.00
2018-01-21T02:43:52.943Z,3.00
2018-01-21T02:46:21.242Z,3.00
2018-01-21T02:48:49.518Z,3.00
2018-01-21T02:51:17.785Z,3.00
2018-01-21T02:53:46.043Z,2.90
2018-01-21T02:56:14.294Z,2.90
2018-01-21T02:58:43.367Z,3.00
2018-01-21T03:01:11.702Z,2.90
2018-01-21T03:03:39.962Z,3.00
2018-01-21T03:06:08.240Z,2.90
2018-01-21T03:08:36.515Z,2.90
2018-01-21T03:11:04.804Z,2.90
2018-01-21T03:13:33.050Z,2.90
2018-01-21T03:16:01.371Z,2.90
2018-01-21T03:18:29.630Z,2.90
2018-01-21T03:20:57.902Z,2.90
2018-01-21T03:23:26.181Z,2.80
2018-01-21T03:25:54.495Z,2.80
2018-01-21T03:28:22.817Z,2.80
2018-01-21T03:30:51.827Z,2.50
2018-01-21T03:33:20.081Z,2.60
2018-01-21T03:35:48.388Z,2.60
2018-01-21T03:38:16.648Z,2.60
2018-01-21T03:40:44.912Z,2.60
2018-01-21T03:43:13.360Z,2.50
2018-01-21T03:45:42.374Z,2.60
2018-01-21T03:48:10.647Z,2.50
2018-01-21T03:50:38.927Z,2.60
2018-01-21T03:53:07.184Z,2.60
2018-01-21T03:55:36.196Z,2.60
2018-01-21T03:58:04.474Z,2.60
2018-01-21T04:00:32.719Z,2.60
2018-01-21T04:03:01.770Z,2.60
2018-01-21T04:05:30.031Z,2.60
2018-01-21T04:07:58.385Z,2.60
2018-01-21T04:10:26.659Z,2.60
2018-01-21T04:12:54.914Z,2.50
2018-01-21T04:15:23.940Z,2.40
2018-01-21T04:17:52.262Z,2.40
2018-01-21T04:20:20.545Z,2.40
2018-01-21T04:22:48.831Z,2.30
2018-01-21T04:25:17.134Z,2.20
2018-01-21T04:27:45.371Z,2.20
2018-01-21T04:30:14.399Z,2.10
2018-01-21T04:32:42.719Z,2.10
2018-01-21T04:35:11.002Z,2.10
2018-01-21T04:37:39.248Z,2.00
2018-01-21T04:40:07.510Z,2.00
2018-01-21T04:42:35.770Z,2.10
2018-01-21T04:45:04.051Z,2.10
2018-01-21T04:47:32.442Z,2.10
2018-01-21T04:50:00.735Z,2.20
2018-01-21T04:52:29.060Z,2.20
2018-01-21T04:54:57.330Z,2.20
2018-01-21T04:57:26.373Z,2.20
2018-01-21T04:59:54.623Z,2.20
2018-01-21T05:02:22.873Z,2.20
2018-01-21T05:04:51.193Z,2.20
2018-01-21T05:07:19.478Z,2.10
2018-01-21T05:09:47.745Z,2.10
2018-01-21T05:12:15.998Z,2.10
2018-01-21T05:14:44.274Z,2.10
2018-01-21T05:17:12.554Z,2.00
2018-01-21T05:19:40.830Z,1.90
2018-01-21T05:22:09.114Z,1.90
2018-01-21T05:24:37.395Z,1.90
2018-01-21T05:27:05.643Z,1.90
2018-01-21T05:29:33.918Z,1.80
2018-01-21T05:32:02.175Z,1.80
2018-01-21T05:34:30.421Z,1.80
2018-01-21T05:36:58.712Z,1.80
2018-01-21T05:39:27.758Z,1.70
2018-01-21T05:41:56.033Z,1.70
2018-01-21T05:44:24.307Z,1.70
2018-01-21T05:46:52.633Z,1.70
2018-01-21T05:49:21.644Z,1.60
2018-01-21T05:51:49.905Z,1.60
2018-01-21T05:54:18.229Z,1.60
2018-01-21T05:56:46.474Z,1.60
2018-01-21T05:59:14.774Z,1.70
2018-01-21T06:01:43.038Z,1.70
2018-01-21T06:04:11.294Z,1.80
2018-01-21T06:06:39.578Z,1.80
2018-01-21T06:09:07.833Z,1.90
2018-01-21T06:11:36.300Z,1.90
2018-01-21T06:14:05.318Z,2.00
2018-01-21T06:16:33.686Z,1.90
2018-01-21T06:19:01.943Z,2.00
2018-01-21T06:21:31.054Z,2.10
2018-01-21T06:23:59.292Z,2.10
2018-01-21T06:26:28.334Z,2.10
2018-01-21T06:28:56.590Z,2.10
2018-01-21T06:31:24.862Z,2.20
2018-01-21T06:33:53.878Z,2.20
2018-01-21T06:36:22.169Z,2.10
2018-01-21T06:38:50.459Z,2.20
2018-01-21T06:41:18.717Z,2.20
2018-01-21T06:43:47.010Z,2.20
2018-01-21T06:46:15.260Z,2.20
2018-01-21T06:48:43.613Z,2.10
2018-01-21T06:51:11.887Z,2.10
2018-01-21T06:53:40.203Z,2.00
2018-01-21T06:56:08.455Z,2.00
2018-01-21T06:58:36.720Z,2.00
2018-01-21T07:01:05.152Z,1.90
2018-01-21T07:03:33.432Z,1.90
2018-01-21T07:06:01.707Z,1.90
2018-01-21T07:08:29.966Z,2.00
2018-01-21T07:10:58.352Z,2.00
2018-01-21T07:13:26.602Z,2.00
2018-01-21T07:15:54.906Z,2.00
2018-01-21T07:18:23.294Z,2.00
2018-01-21T07:20:51.533Z,2.00
2018-01-21T07:23:19.894Z,2.00
2018-01-21T07:25:48.182Z,2.00
2018-01-21T07:28:16.557Z,2.10
2018-01-21T07:30:44.848Z,2.00
2018-01-21T07:33:13.102Z,2.00
2018-01-21T07:35:41.501Z,2.00
2018-01-21T07:38:09.823Z,1.90
2018-01-21T07:40:38.857Z,1.80
2018-01-21T07:43:07.132Z,1.80
2018-01-21T07:45:35.369Z,1.70
2018-01-21T07:48:03.663Z,1.70
2018-01-21T07:50:31.921Z,1.60
2018-01-21T07:53:00.227Z,1.70
2018-01-21T07:55:28.638Z,1.60
2018-01-21T07:57:56.926Z,1.70
2018-01-21T08:00:25.172Z,1.70
2018-01-21T08:02:54.246Z,1.70
2018-01-21T08:05:22.523Z,1.70
2018-01-21T08:07:50.812Z,1.70
2018-01-21T08:10:19.102Z,1.70
2018-01-21T08:12:48.136Z,1.80
2018-01-21T08:15:16.441Z,1.80
2018-01-21T08:17:44.681Z,1.90
2018-01-21T08:20:12.961Z,1.90
2018-01-21T08:22:41.259Z,2.00
2018-01-21T08:25:09.541Z,2.00
2018-01-21T08:27:37.923Z,2.10
2018-01-21T08:30:06.254Z,2.10
2018-01-21T08:32:35.299Z,2.20
2018-01-21T08:35:03.573Z,2.20
2018-01-21T08:37:31.882Z,2.30
2018-01-21T08:40:00.133Z,2.40
2018-01-21T08:42:28.473Z,2.40
2018-01-21T08:44:56.739Z,2.40
2018-01-21T08:47:25.012Z,2.40
2018-01-21T08:49:53.255Z,2.30
2018-01-21T08:52:21.513Z,2.30
2018-01-21T08:54:50.527Z,2.30
2018-01-21T08:57:19.641Z,2.30
2018-01-21T08:59:47.925Z,2.20
2018-01-21T09:02:16.201Z,2.30
2018-01-21T09:04:44.657Z,2.30
2018-01-21T09:07:13.738Z,2.40
2018-01-21T09:09:42.760Z,2.50
2018-01-21T09:12:11.830Z,2.60
2018-01-21T09:14:40.850Z,2.80
2018-01-21T09:17:09.114Z,2.70
2018-01-21T09:19:37.574Z,2.90
2018-01-21T09:22:05.826Z,3.00
2018-01-21T09:24:35.602Z,3.20
2018-01-21T09:27:03.865Z,3.20
2018-01-21T09:29:32.175Z,3.30
2018-01-21T09:32:00.436Z,3.40
2018-01-21T09:34:28.709Z,3.50
2018-01-21T09:36:58.602Z,3.60
2018-01-21T09:39:26.895Z,3.60
2018-01-21T09:41:55.165Z,3.70
2018-01-21T09:44:23.581Z,3.70
2018-01-21T09:46:53.442Z,3.80
2018-01-21T09:49:21.819Z,3.80
2018-01-21T09:51:50.113Z,3.90
2018-01-21T09:54:18.344Z,3.90
2018-01-21T09:56:47.437Z,3.90
2018-01-21T09:59:16.461Z,4.00
2018-01-21T10:01:44.756Z,3.90
2018-01-21T10:04:13.026Z,3.90
2018-01-21T10:06:41.303Z,4.00
2018-01-21T10:09:09.545Z,3.90
2018-01-21T10:11:37.938Z,3.90
2018-01-21T10:14:06.250Z,4.00
2018-01-21T10:16:34.547Z,4.10
2018-01-21T10:19:02.998Z,4.20
2018-01-21T10:21:32.187Z,4.30
2018-01-21T10:24:00.426Z,4.30
2018-01-21T10:26:28.704Z,4.40
2018-01-21T10:28:56.994Z,4.50
2018-01-21T10:31:25.345Z,4.50
2018-01-21T10:33:53.622Z,4.60
2018-01-21T10:36:21.874Z,4.60
2018-01-21T10:38:50.955Z,4.80
2018-01-21T10:41:19.306Z,4.80
2018-01-21T10:43:47.580Z,4.90
2018-01-21T10:46:15.840Z,4.90
2018-01-21T10:48:44.097Z,4.90
2018-01-21T10:51:12.360Z,4.90
2018-01-21T10:53:41.404Z,4.90
2018-01-21T10:56:09.647Z,4.90
2018-01-21T10:58:37.979Z,5.00
2018-01-21T11:01:06.205Z,5.00
2018-01-21T11:03:34.478Z,5.10
2018-01-21T11:06:02.818Z,5.10
2018-01-21T11:08:31.856Z,5.00
2018-01-21T11:11:00.146Z,5.00
2018-01-21T11:13:28.459Z,5.10
2018-01-21T11:15:57.512Z,5.10
2018-01-21T11:18:25.723Z,5.00
2018-01-21T11:20:54.036Z,5.10
2018-01-21T11:23:22.503Z,5.10
2018-01-21T11:25:50.824Z,5.10
2018-01-21T11:28:19.068Z,5.10
2018-01-21T11:30:47.855Z,5.10
2018-01-21T11:33:16.122Z,5.20
2018-01-21T11:35:45.134Z,5.30
2018-01-21T11:38:13.389Z,5.30
2018-01-21T11:40:41.657Z,5.30
2018-01-21T11:43:10.686Z,5.30
2018-01-21T11:45:38.945Z,5.30
2018-01-21T11:48:07.275Z,5.40
2018-01-21T11:50:35.514Z,5.40
2018-01-21T11:53:03.807Z,5.50
2018-01-21T11:55:32.027Z,5.50
2018-01-21T11:58:00.311Z,5.60
2018-01-21T12:00:28.551Z,5.70
2018-01-21T12:02:56.861Z,5.70
2018-01-21T12:05:25.242Z,5.80
2018-01-21T12:07:53.499Z,5.80
2018-01-21T12:10:21.820Z,5.80
2018-01-21T12:12:50.402Z,5.80
2018-01-21T12:15:18.658Z,5.80
2018-01-21T12:17:46.922Z,5.80
2018-01-21T12:20:15.207Z,5.80
2018-01-21T12:22:43.482Z,5.80
2018-01-21T12:25:11.721Z,5.80
2018-01-21T12:27:40.741Z,5.80
2018-01-21T12:30:08.955Z,5.80
2018-01-21T12:32:37.255Z,5.90
2018-01-21T12:35:06.312Z,5.90
2018-01-21T12:37:34.574Z,5.90
2018-01-21T12:40:02.850Z,6.00
2018-01-21T12:42:31.106Z,6.00
2018-01-21T12:44:59.364Z,6.10
2018-01-21T12:47:27.705Z,6.20
2018-01-21T12:49:55.940Z,6.20
2018-01-21T12:52:24.236Z,6.20
2018-01-21T12:54:52.690Z,6.20
2018-01-21T12:57:20.944Z,6.20
2018-01-21T12:59:49.203Z,6.20
2018-01-21T13:02:18.231Z,6.20
2018-01-21T13:04:46.513Z,6.20
2018-01-21T13:07:14.802Z,6.20
2018-01-21T13:09:43.212Z,6.20
2018-01-21T13:12:11.453Z,6.30
2018-01-21T13:14:39.697Z,6.30
2018-01-21T13:17:07.973Z,6.40
2018-01-21T13:19:36.232Z,6.40
2018-01-21T13:22:04.551Z,6.40
2018-01-21T13:24:32.858Z,6.30
2018-01-21T13:27:01.115Z,6.30
2018-01-21T13:29:29.411Z,6.30
2018-01-21T13:31:57.682Z,6.30
2018-01-21T13:34:25.942Z,6.20
2018-01-21T13:36:54.271Z,6.10
2018-01-21T13:39:22.552Z,6.10
2018-01-21T13:41:50.814Z,6.00
2018-01-21T13:44:19.094Z,6.00
2018-01-21T13:46:47.419Z,6.00
2018-01-21T13:49:15.682Z,6.00
2018-01-21T13:51:43.954Z,6.00
2018-01-21T13:54:12.564Z,6.00
2018-01-21T13:56:40.838Z,6.00
2018-01-21T13:59:09.139Z,6.00
2018-01-21T14:01:37.439Z,6.00
2018-01-21T14:04:05.724Z,6.00
2018-01-21T14:06:33.966Z,6.00
2018-01-21T14:09:02.358Z,6.10
2018-01-21T14:11:30.684Z,6.10
2018-01-21T14:13:59.031Z,6.20
2018-01-21T14:16:27.508Z,6.30
2018-01-21T14:18:55.765Z,6.30
2018-01-21T14:21:24.161Z,6.30
2018-01-21T14:23:52.479Z,6.30
2018-01-21T14:26:21.532Z,6.20
2018-01-21T14:28:49.813Z,6.20
2018-01-21T14:31:18.074Z,6.20
2018-01-21T14:33:46.395Z,6.20
2018-01-21T14:36:14.644Z,6.10
2018-01-21T14:38:43.048Z,6.10
2018-01-21T14:41:11.310Z,6.10
2018-01-21T14:43:39.630Z,6.10
2018-01-21T14:46:08.023Z,6.10
2018-01-21T14:48:36.296Z,6.10
2018-01-21T14:51:04.557Z,6.10
2018-01-21T14:53:32.888Z,6.00
2018-01-21T14:56:01.952Z,6.00
2018-01-21T14:58:30.225Z,5.90
2018-01-21T15:00:58.516Z,5.90
2018-01-21T15:03:26.796Z,5.90
2018-01-21T15:05:55.135Z,5.90
2018-01-21T15:08:23.425Z,5.90
2018-01-21T15:10:51.687Z,5.90
2018-01-21T15:13:20.184Z,5.80
2018-01-21T15:15:48.451Z,5.80
2018-01-21T15:18:16.730Z,5.80
2018-01-21T15:20:45.225Z,5.80
2018-01-21T15:23:13.476Z,5.70
2018-01-21T15:25:41.739Z,5.70
2018-01-21T15:28:10.057Z,5.70
2018-01-21T15:30:38.315Z,5.70
2018-01-21T15:33:06.626Z,5.70
2018-01-21T15:35:34.894Z,5.70
2018-01-21T15:38:03.158Z,5.60
2018-01-21T15:40:31.435Z,5.60
2018-01-21T15:42:59.670Z,5.50
2018-01-21T15:45:27.986Z,5.50
2018-01-21T15:47:56.253Z,5.50
2018-01-21T15:50:24.551Z,5.40
2018-01-21T15:52:52.925Z,5.40
2018-01-21T15:55:21.213Z,5.30
2018-01-21T15:57:49.465Z,5.30
2018-01-21T16:00:17.714Z,5.30
2018-01-21T16:02:46.017Z,5.20
2018-01-21T16:05:14.332Z,5.20
2018-01-21T16:07:42.561Z,5.10
2018-01-21T16:10:10.876Z,5.10
2018-01-21T16:12:39.282Z,5.10
2018-01-21T16:15:07.613Z,5.00
2018-01-21T16:17:35.899Z,5.00
2018-01-21T16:20:04.255Z,5.00
2018-01-21T16:22:33.308Z,4.90
2018-01-21T16:25:01.545Z,4.90
2018-01-21T16:27:30.594Z,4.90
2018-01-21T16:29:58.876Z,4.80
2018-01-21T16:32:27.187Z,4.90
2018-01-21T16:34:56.212Z,4.80
2018-01-21T16:37:36.426Z,4.70
2018-01-21T16:40:04.675Z,4.70
2018-01-21T16:42:33.034Z,4.60
2018-01-21T16:45:01.472Z,4.60
2018-01-21T16:47:29.878Z,4.40
2018-01-21T16:49:58.236Z,4.40
2018-01-21T16:52:26.500Z,4.30
2018-01-21T16:54:54.836Z,4.20
2018-01-21T16:57:23.195Z,4.20
2018-01-21T16:59:51.477Z,4.10
2018-01-21T17:02:19.763Z,4.00
2018-01-21T17:04:48.076Z,3.90
2018-01-21T17:07:18.195Z,3.90
2018-01-21T17:09:48.135Z,3.80
2018-01-21T17:12:16.422Z,3.80
2018-01-21T17:14:44.745Z,3.80
2018-01-21T17:17:13.738Z,3.80
2018-01-21T17:19:42.762Z,3.70
2018-01-21T17:22:11.866Z,3.70
2018-01-21T17:24:40.215Z,3.60
2018-01-21T17:27:08.566Z,3.70
2018-01-21T17:29:36.828Z,3.70
2018-01-21T17:32:05.179Z,3.60
2018-01-21T17:34:33.466Z,3.60
2018-01-21T17:37:01.924Z,3.50
2018-01-21T17:39:30.308Z,3.50
2018-01-21T17:41:58.595Z,3.40
2018-01-21T17:44:26.919Z,3.40
2018-01-21T17:46:55.967Z,3.40
2018-01-21T17:49:24.598Z,3.30
2018-01-21T17:51:52.971Z,3.40
2018-01-21T17:54:22.002Z,3.40
2018-01-21T17:56:50.283Z,3.30
2018-01-21T17:59:18.559Z,3.30
2018-01-21T18:01:46.926Z,3.30
2018-01-21T18:04:15.191Z,3.30
2018-01-21T18:06:43.917Z,3.20
2018-01-21T18:09:12.172Z,3.20
2018-01-21T18:11:40.454Z,3.20
2018-01-21T18:14:08.895Z,3.10
2018-01-21T18:16:37.171Z,3.10
2018-01-21T18:19:05.600Z,3.10
2018-01-21T18:21:33.862Z,3.10
2018-01-21T18:24:02.175Z,3.00
2018-01-21T18:26:31.318Z,3.00
2018-01-21T18:28:59.615Z,3.00
2018-01-21T18:31:27.904Z,3.00
2018-01-21T18:33:56.156Z,3.00
2018-01-21T18:36:24.407Z,3.00
2018-01-21T18:38:52.730Z,3.00
2018-01-21T18:41:21.192Z,3.10
2018-01-21T18:43:50.080Z,3.10
2018-01-21T18:46:18.357Z,3.10
2018-01-21T18:48:46.623Z,3.10
2018-01-21T18:51:14.919Z,3.10
2018-01-21T18:53:43.192Z,3.20
2018-01-21T18:56:11.537Z,3.20
2018-01-21T18:58:39.898Z,3.20
2018-01-21T19:01:08.182Z,3.20
2018-01-21T19:03:36.464Z,3.20
2018-01-21T19:06:04.757Z,3.20
2018-01-21T19:08:33.025Z,3.20
2018-01-21T19:11:01.316Z,3.20
2018-01-21T19:13:29.741Z,3.20
2018-01-21T19:15:58.802Z,3.20
2018-01-21T19:18:27.105Z,3.10
2018-01-21T19:20:55.363Z,3.20
2018-01-21T19:23:24.398Z,3.20
2018-01-21T19:25:52.650Z,3.10
2018-01-21T19:28:20.969Z,3.20
2018-01-21T19:30:49.238Z,3.30
2018-01-21T19:33:17.560Z,3.30
2018-01-21T19:35:46.719Z,3.30
2018-01-21T19:38:14.989Z,3.30
2018-01-21T19:40:43.258Z,3.30
2018-01-21T19:43:11.511Z,3.30
2018-01-21T19:45:39.806Z,3.30
2018-01-21T19:48:08.073Z,3.30
2018-01-21T19:50:36.354Z,3.40
2018-01-21T19:53:04.596Z,3.40
2018-01-21T19:55:32.894Z,3.40
2018-01-21T19:58:01.159Z,3.40
2018-01-21T20:00:29.540Z,3.40
2018-01-21T20:02:57.888Z,3.40
2018-01-21T20:05:26.683Z,3.40
2018-01-21T20:07:54.978Z,3.40
2018-01-21T20:10:23.250Z,3.40
2018-01-21T20:12:52.243Z,3.40
2018-01-21T20:15:20.535Z,3.40
2018-01-21T20:17:48.833Z,3.40
2018-01-21T20:20:17.122Z,3.40
2018-01-21T20:22:45.384Z,3.40
2018-01-21T20:25:13.646Z,3.40
2018-01-21T20:27:42.058Z,3.40
2018-01-21T20:30:10.339Z,3.40
2018-01-21T20:32:38.624Z,3.40
2018-01-21T20:35:07.300Z,3.40
2018-01-21T20:37:35.588Z,3.40
2018-01-21T20:40:04.614Z,3.50
2018-01-21T20:42:32.900Z,3.40
2018-01-21T20:45:01.379Z,3.50
2018-01-21T20:47:29.661Z,3.50
2018-01-21T20:49:57.938Z,3.40
2018-01-21T20:52:26.385Z,3.50
2018-01-21T20:54:54.699Z,3.50
2018-01-21T20:57:22.985Z,3.50
2018-01-21T20:59:51.269Z,3.50
2018-01-21T21:02:19.519Z,3.50
2018-01-21T21:04:47.914Z,3.50
2018-01-21T21:07:17.939Z,3.50
2018-01-21T21:09:47.019Z,3.50
2018-01-21T21:12:15.282Z,3.50
2018-01-21T21:14:43.537Z,3.50
2018-01-21T21:17:11.808Z,3.50
2018-01-21T21:19:40.096Z,3.60
2018-01-21T21:22:08.380Z,3.50
2018-01-21T21:24:36.653Z,3.60
2018-01-21T21:27:04.954Z,3.60
2018-01-21T21:29:33.997Z,3.60
2018-01-21T21:32:02.282Z,3.60
2018-01-21T21:34:30.583Z,3.60
2018-01-21T21:36:58.869Z,3.60
2018-01-21T21:39:27.130Z,3.70
2018-01-21T21:41:55.476Z,3.60
2018-01-21T21:44:23.742Z,3.60
2018-01-21T21:46:52.024Z,3.70
2018-01-21T21:49:20.291Z,3.60
2018-01-21T21:51:48.620Z,3.60
2018-01-21T21:54:16.856Z,3.70
2018-01-21T21:56:45.145Z,3.70
2018-01-21T21:59:13.450Z,3.70
2018-01-21T22:01:41.690Z,3.70
2018-01-21T22:04:09.955Z,3.70
2018-01-21T22:06:38.214Z,3.70
2018-01-21T22:09:06.514Z,3.70
2018-01-21T22:11:34.896Z,3.70
2018-01-21T22:14:03.177Z,3.70
2018-01-21T22:16:31.432Z,3.60
2018-01-21T22:18:59.669Z,3.60
2018-01-21T22:21:28.719Z,3.50
2018-01-21T22:23:57.004Z,3.50
2018-01-21T22:26:25.250Z,3.50
2018-01-21T22:28:53.671Z,3.40
2018-01-21T22:31:21.926Z,3.40
2018-01-21T22:33:50.182Z,3.30
2018-01-21T22:36:18.510Z,3.30
2018-01-21T22:38:46.801Z,3.20
2018-01-21T22:41:15.058Z,3.20
2018-01-21T22:43:44.078Z,3.10
2018-01-21T22:46:12.354Z,3.00
2018-01-21T22:48:40.620Z,3.10
2018-01-21T22:51:08.927Z,3.00
2018-01-21T22:53:37.224Z,3.00
2018-01-21T22:56:05.550Z,2.90
2018-01-21T22:58:33.885Z,2.90
2018-01-21T23:01:02.142Z,2.90
2018-01-21T23:03:30.422Z,2.90
2018-01-21T23:05:58.822Z,2.90
2018-01-21T23:08:28.038Z,2.90
2018-01-21T23:10:56.336Z,2.80
2018-01-21T23:13:24.596Z,2.90
2018-01-21T23:15:52.866Z,2.90
2018-01-21T23:18:21.143Z,2.90
2018-01-21T23:21:04.311Z,2.90
2018-01-21T23:23:32.598Z,2.80
2018-01-21T23:26:00.861Z,2.80
2018-01-21T23:28:29.106Z,2.80
2018-01-21T23:30:57.371Z,2.80
2018-01-21T23:33:25.632Z,2.70
2018-01-21T23:35:54.653Z,2.80
2018-01-21T23:38:22.933Z,2.70
2018-01-21T23:40:51.178Z,2.80
2018-01-21T23:43:19.574Z,2.70
2018-01-21T23:45:47.831Z,2.70
2018-01-21T23:48:16.122Z,2.70
2018-01-21T23:50:44.489Z,2.70
2018-01-21T23:53:12.759Z,2.60
2018-01-21T23:55:41.021Z,2.60
2018-01-21T23:58:09.275Z,2.60
